createdAt,value
2023-05-05T00:00:19.898Z,1763
2023-05-05T00:05:38.042Z,1794
2023-05-05T00:10:56.470Z,1824
2023-05-05T00:16:14.659Z,1845
2023-05-05T00:21:33.072Z,1864
2023-05-05T00:26:51.054Z,1882
2023-05-05T00:32:09.442Z,1912
2023-05-05T00:37:28.002Z,1926
2023-05-05T00:42:46.180Z,1945
2023-05-05T00:48:04.242Z,1952
2023-05-05T00:53:22.718Z,1951
2023-05-05T00:58:41.269Z,1939
2023-05-05T01:03:59.583Z,1943
2023-05-05T01:09:18.020Z,1952
2023-05-05T01:14:35.951Z,1951
2023-05-05T01:19:54.329Z,1952
2023-05-05T01:25:12.704Z,1953
2023-05-05T01:30:30.824Z,1966
2023-05-05T01:35:48.910Z,1983
2023-05-05T01:41:06.936Z,1991
2023-05-05T01:46:25.075Z,1988
2023-05-05T01:51:43.589Z,1997
2023-05-05T01:57:02.201Z,1997
2023-05-05T02:02:20.421Z,2010
2023-05-05T02:07:38.920Z,1989
2023-05-05T02:12:57.146Z,1999
2023-05-05T02:18:15.309Z,1992
2023-05-05T02:23:33.675Z,1997
2023-05-05T02:28:52.270Z,1999
2023-05-05T02:34:10.623Z,1991
2023-05-05T02:39:28.994Z,1990
2023-05-05T02:44:47.154Z,2026
2023-05-05T02:50:05.774Z,2083
2023-05-05T02:55:24.983Z,2039
2023-05-05T03:00:43.172Z,2007
2023-05-05T03:06:01.156Z,1993
2023-05-05T03:11:19.714Z,1972
2023-05-05T03:16:37.980Z,1965
2023-05-05T03:21:56.621Z,1959
2023-05-05T03:27:14.957Z,1995
2023-05-05T03:32:33.173Z,1964
2023-05-05T03:37:51.585Z,1903
2023-05-05T03:43:09.737Z,1864
2023-05-05T03:48:27.889Z,1842
2023-05-05T03:53:46.020Z,1822
2023-05-05T03:59:04.364Z,1796
2023-05-05T04:04:22.942Z,1788
2023-05-05T04:09:41.136Z,1775
2023-05-05T04:14:59.300Z,1749
2023-05-05T04:20:17.981Z,1744
2023-05-05T04:25:36.268Z,1727
2023-05-05T04:30:54.704Z,1710
2023-05-05T04:36:13.617Z,1244
2023-05-05T04:41:31.541Z,1200
2023-05-05T04:46:49.529Z,1185
2023-05-05T04:52:08.081Z,1248
2023-05-05T04:57:26.416Z,1279
2023-05-05T05:02:44.679Z,1299
2023-05-05T05:08:03.187Z,1326
2023-05-05T05:13:21.545Z,1331
2023-05-05T05:18:40.192Z,1331
2023-05-05T05:23:58.804Z,1328
2023-05-05T05:29:16.942Z,1321
2023-05-05T05:34:34.906Z,1316
2023-05-05T05:39:53.664Z,1310
2023-05-05T05:45:12.020Z,1294
2023-05-05T05:50:33.734Z,1285
2023-05-05T05:55:52.267Z,1275
2023-05-05T06:01:10.802Z,1268
2023-05-05T06:06:29.259Z,1253
2023-05-05T06:11:47.975Z,1238
2023-05-05T06:17:06.130Z,1225
2023-05-05T06:22:27.081Z,1221
2023-05-05T06:27:45.355Z,1211
2023-05-05T06:33:03.615Z,1198
2023-05-05T06:38:22.061Z,1193
2023-05-05T06:43:40.456Z,1183
2023-05-05T06:48:58.571Z,1163
2023-05-05T06:54:16.862Z,1147
2023-05-05T06:59:36.003Z,1140
2023-05-05T07:04:54.386Z,1132
2023-05-05T07:10:13.314Z,1126
2023-05-05T07:15:31.701Z,1114
2023-05-05T07:20:50.089Z,1118
2023-05-05T07:26:08.533Z,1113
2023-05-05T07:31:27.439Z,1109
2023-05-05T07:36:45.969Z,1102
2023-05-05T07:42:04.505Z,1097
2023-05-05T07:47:23.019Z,1092
2023-05-05T07:52:46.401Z,1092
2023-05-05T07:58:27.680Z,1083
2023-05-05T08:03:46.357Z,1087
2023-05-05T08:09:05.322Z,1087
2023-05-05T08:14:24.060Z,1084
2023-05-05T08:19:29.446Z,1074
2023-05-05T08:24:48.263Z,1067
2023-05-05T08:30:06.775Z,1066
2023-05-05T08:35:25.045Z,1060
2023-05-05T08:40:43.723Z,1059
2023-05-05T08:46:02.265Z,1050
2023-05-05T08:51:21.116Z,1049
2023-05-05T08:56:39.507Z,1046
2023-05-05T09:01:57.919Z,1039
2023-05-05T09:07:16.288Z,1035
2023-05-05T09:12:34.727Z,1031
2023-05-05T09:17:53.251Z,1030
2023-05-05T09:23:12.139Z,1025
2023-05-05T09:28:30.528Z,1020
2023-05-05T09:33:48.790Z,1020
2023-05-05T09:39:07.497Z,1011
2023-05-05T09:44:25.856Z,1008
2023-05-05T09:49:44.371Z,1003
2023-05-05T09:55:02.815Z,1007
2023-05-05T10:00:21.971Z,1003
2023-05-05T10:05:40.471Z,1001
2023-05-05T10:10:59.332Z,1000
2023-05-05T10:16:20.360Z,993
2023-05-05T10:21:40.208Z,992
2023-05-05T10:27:00.427Z,986
2023-05-05T10:32:43.051Z,977
2023-05-05T10:38:35.039Z,971
2023-05-05T10:43:53.821Z,972
2023-05-05T10:49:13.325Z,967
2023-05-05T10:54:32.203Z,957
2023-05-05T10:59:52.571Z,950
2023-05-05T11:05:10.956Z,954
2023-05-05T11:10:29.457Z,947
2023-05-05T11:15:47.961Z,942
2023-05-05T11:21:06.120Z,938
2023-05-05T11:26:27.692Z,936
2023-05-05T11:31:46.227Z,933
2023-05-05T11:37:04.435Z,933
2023-05-05T11:42:22.698Z,933
2023-05-05T11:47:41.152Z,920
2023-05-05T11:52:59.505Z,921
2023-05-05T11:58:17.952Z,925
2023-05-05T12:03:36.997Z,928
2023-05-05T12:08:56.056Z,928
2023-05-05T12:14:14.516Z,917
2023-05-05T12:19:33.490Z,916
2023-05-05T12:24:53.200Z,916
2023-05-05T12:29:57.683Z,917
2023-05-05T12:35:16.270Z,914
2023-05-05T12:40:34.659Z,911
2023-05-05T12:45:53.289Z,912
2023-05-05T12:51:12.522Z,908
2023-05-05T12:56:15.072Z,901
2023-05-05T13:01:33.696Z,901
2023-05-05T13:06:54.061Z,901
2023-05-05T13:11:57.349Z,897
2023-05-05T13:17:15.701Z,890
2023-05-05T13:22:34.195Z,889
2023-05-05T13:27:52.627Z,883
2023-05-05T13:33:11.200Z,879
2023-05-05T13:38:29.558Z,881
2023-05-05T13:43:48.174Z,880
2023-05-05T13:49:06.692Z,866
2023-05-05T13:54:25.219Z,830
2023-05-05T13:59:28.103Z,801
2023-05-05T14:04:46.551Z,790
2023-05-05T14:10:04.960Z,735
2023-05-05T14:15:23.395Z,690
2023-05-05T14:20:41.805Z,732
2023-05-05T14:26:01.458Z,797
2023-05-05T14:31:19.467Z,833
2023-05-05T14:36:38.277Z,848
2023-05-05T14:41:57.034Z,859
2023-05-05T14:47:00.022Z,868
2023-05-05T14:52:19.695Z,875
2023-05-05T14:57:38.202Z,883
2023-05-05T15:02:57.075Z,894
2023-05-05T15:08:15.960Z,905
2023-05-05T15:13:35.030Z,915
2023-05-05T15:18:53.933Z,936
2023-05-05T15:24:12.247Z,945
2023-05-05T15:29:30.701Z,966
2023-05-05T15:34:50.315Z,989
2023-05-05T15:40:08.854Z,996
2023-05-05T15:45:27.486Z,994
2023-05-05T15:50:46.097Z,990
2023-05-05T15:56:04.167Z,975
2023-05-05T16:01:23.796Z,949
2023-05-05T16:06:42.095Z,927
2023-05-05T16:12:00.589Z,907
2023-05-05T16:17:20.302Z,887
2023-05-05T16:22:41.039Z,873
2023-05-05T16:27:59.815Z,858
2023-05-05T16:33:18.485Z,841
2023-05-05T16:38:36.712Z,828
2023-05-05T16:43:55.028Z,813
2023-05-05T16:49:13.448Z,813
2023-05-05T16:54:31.755Z,811
2023-05-05T16:59:50.324Z,813
2023-05-05T17:05:09.097Z,814
2023-05-05T17:10:28.718Z,812
2023-05-05T17:15:47.440Z,816
2023-05-05T17:21:06.395Z,823
2023-05-05T17:26:24.773Z,829
2023-05-05T17:31:43.489Z,839
2023-05-05T17:37:02.169Z,846
2023-05-05T17:42:20.762Z,859
2023-05-05T17:47:39.603Z,876
2023-05-05T17:52:58.271Z,764
2023-05-05T17:58:16.778Z,768
2023-05-05T18:03:35.308Z,797
2023-05-05T18:08:58.616Z,793
2023-05-05T18:14:18.735Z,808
2023-05-05T18:19:38.489Z,845
2023-05-05T18:24:57.222Z,851
2023-05-05T18:30:15.576Z,869
2023-05-05T18:35:34.087Z,890
2023-05-05T18:40:52.762Z,912
2023-05-05T18:46:11.465Z,938
2023-05-05T18:51:30.238Z,949
2023-05-05T18:56:48.951Z,964
2023-05-05T19:01:51.848Z,976
2023-05-05T19:07:09.927Z,984
2023-05-05T19:12:41.710Z,990
2023-05-05T19:17:59.925Z,1002
2023-05-05T19:23:18.269Z,1019
2023-05-05T19:28:36.509Z,1040
2023-05-05T19:33:55.009Z,1043
2023-05-05T19:39:15.294Z,1047
2023-05-05T19:44:34.488Z,1064
2023-05-05T19:49:52.812Z,1068
2023-05-05T19:55:10.917Z,1072
2023-05-05T20:00:29.143Z,798
2023-05-05T20:05:47.310Z,842
2023-05-05T20:11:05.671Z,938
2023-05-05T20:16:24.275Z,977
2023-05-05T20:21:43.114Z,910
2023-05-05T20:27:01.825Z,889
2023-05-05T20:32:20.602Z,1004
2023-05-05T20:37:39.158Z,1045
2023-05-05T20:42:57.711Z,1071
2023-05-05T20:48:16.104Z,1094
2023-05-05T20:53:34.483Z,1115
2023-05-05T20:58:53.188Z,1146
2023-05-05T21:04:11.863Z,1180
2023-05-05T21:09:30.562Z,1201
2023-05-05T21:14:50.076Z,1218
2023-05-05T21:20:09.045Z,1230
2023-05-05T21:25:28.690Z,1245
2023-05-05T21:30:55.055Z,1253
2023-05-05T21:36:40.346Z,1252
2023-05-05T21:41:58.850Z,1247
2023-05-05T21:47:17.625Z,1243
2023-05-05T21:52:36.195Z,1236
2023-05-05T21:57:54.358Z,1231
2023-05-05T22:03:12.666Z,1227
2023-05-05T22:08:31.000Z,1228
2023-05-05T22:13:49.138Z,1227
2023-05-05T22:19:07.419Z,1232
2023-05-05T22:24:26.126Z,1230
2023-05-05T22:29:44.451Z,1227
2023-05-05T22:35:02.824Z,1225
2023-05-05T22:40:21.284Z,1224
2023-05-05T22:45:39.445Z,1213
2023-05-05T22:50:58.118Z,1211
2023-05-05T22:56:16.684Z,1205
2023-05-05T23:01:34.939Z,1207
2023-05-05T23:06:53.469Z,1209
2023-05-05T23:11:57.750Z,1202
2023-05-05T23:17:15.940Z,1196
2023-05-05T23:22:34.151Z,1199
2023-05-05T23:27:52.858Z,1188
2023-05-05T23:33:11.499Z,1192
2023-05-05T23:38:29.992Z,1228
2023-05-05T23:43:48.588Z,1244
2023-05-05T23:49:06.960Z,1248
2023-05-05T23:54:25.534Z,1272
2023-05-05T23:59:43.892Z,1288
